Time;durP1;ratioP1;P1;durP2;ratioP2;P2;SDS_P1;SDS_P2;PMS_P1;PMS_P2;Temp;Humidity;BMP_temperature;BMP_pressure;BME280_temperature;BME280_humidity;BME280_pressure;Samples;Min_cycle;Max_cycle;Signal;HPM_P1;HPM_P2
2023/10/12 00:02:27;;;;;;;5.73;3.83;;;17.10;11.70;;;;;;5014807;28;20427;-70
2023/10/12 00:04:53;;;;;;;5.77;4.30;;;17.00;11.80;;;;;;5013424;28;20465;-69
2023/10/12 00:07:33;;;;;;;4.47;3.90;;;17.00;12.00;;;;;;5014840;28;21010;-69
2023/10/12 00:10:40;;;;;;;5.53;3.67;;;16.90;12.40;;;;;;5014395;28;20421;-69
2023/10/12 00:12:59;;;;;;;5.10;4.00;;;16.90;12.40;;;;;;5012407;28;20423;-69
2023/10/12 00:15:25;;;;;;;5.13;4.63;;;16.90;12.70;;;;;;5014075;28;20469;-70
2023/10/12 00:17:55;;;;;;;4.80;3.33;;;16.80;12.80;;;;;;5013996;28;20435;-70
2023/10/12 00:22:58;;;;;;;5.90;3.60;;;16.80;12.90;;;;;;5014254;28;20411;-71
2023/10/12 00:25:25;;;;;;;5.80;3.90;;;16.80;12.90;;;;;;5012983;28;20560;-70
2023/10/12 00:27:51;;;;;;;6.33;4.00;;;16.70;13.00;;;;;;5014183;28;20438;-71
2023/10/12 00:30:17;;;;;;;6.93;4.70;;;16.60;13.30;;;;;;5014149;28;20415;-71
2023/10/12 00:32:43;;;;;;;5.67;4.17;;;16.60;13.40;;;;;;5013035;28;20215;-71
2023/10/12 00:35:11;;;;;;;5.27;4.10;;;16.50;13.50;;;;;;5014082;28;20516;-71
2023/10/12 00:37:37;;;;;;;10.53;4.30;;;16.60;13.20;;;;;;5013686;28;20411;-70
2023/10/12 00:40:23;;;;;;;5.00;3.83;;;16.60;13.40;;;;;;5014050;28;20834;-71
2023/10/12 00:42:53;;;;;;;6.23;4.00;;;16.60;13.60;;;;;;5012901;28;20423;-72
2023/10/12 00:45:29;;;;;;;4.90;3.80;;;16.50;13.90;;;;;;5013657;28;20426;-71
2023/10/12 00:48:01;;;;;;;4.80;4.00;;;16.50;14.10;;;;;;5013738;28;20458;-70
2023/10/12 00:50:28;;;;;;;5.83;3.47;;;16.40;14.30;;;;;;5014061;28;20906;-71
2023/10/12 00:52:58;;;;;;;8.17;4.53;;;16.30;14.90;;;;;;5013777;28;20494;-70
2023/10/12 00:55:36;;;;;;;7.57;4.13;;;16.20;15.50;;;;;;5013864;28;20422;-70
2023/10/12 00:58:08;;;;;;;6.30;4.00;;;16.10;15.20;;;;;;5013763;28;20489;-70
2023/10/12 01:00:51;;;;;;;5.33;3.60;;;16.10;15.40;;;;;;5013910;28;20972;-71
2023/10/12 01:08:47;;;;;;;7.03;4.43;;;16.00;16.10;;;;;;5014167;28;20443;-69
2023/10/12 01:11:21;;;;;;;6.90;4.10;;;16.00;16.00;;;;;;5012850;28;20493;-69
2023/10/12 01:14:09;;;;;;;9.53;5.17;;;16.00;15.90;;;;;;5013939;28;20505;-69
2023/10/12 01:19:22;;;;;;;8.93;4.10;;;16.00;15.40;;;;;;5014662;28;20441;-70
2023/10/12 01:22:27;;;;;;;5.50;3.97;;;16.10;14.60;;;;;;5014918;28;20917;-70
2023/10/12 01:24:58;;;;;;;7.10;3.80;;;16.20;14.50;;;;;;5012254;28;20457;-70
2023/10/12 01:27:27;;;;;;;6.63;4.00;;;16.30;14.00;;;;;;5013601;28;20925;-70
2023/10/12 01:30:11;;;;;;;4.30;3.33;;;16.30;13.90;;;;;;5013055;28;20937;-70
2023/10/12 01:32:38;;;;;;;6.57;3.90;;;16.40;13.30;;;;;;5011922;28;21112;-70
2023/10/12 01:35:05;;;;;;;6.87;4.13;;;16.50;12.90;;;;;;5012975;28;20476;-70
2023/10/12 01:37:41;;;;;;;4.63;3.20;;;16.50;12.40;;;;;;5013092;28;20172;-69
2023/10/12 01:40:18;;;;;;;7.40;4.57;;;16.60;12.30;;;;;;5013513;28;20410;-70
2023/10/12 01:50:38;;;;;;;4.10;3.47;;;16.90;10.00;;;;;;5008947;28;20757;-69
2023/10/12 01:53:26;;;;;;;6.40;3.40;;;16.90;9.90;;;;;;5011825;28;20423;-70
2023/10/12 01:55:52;;;;;;;6.23;3.80;;;16.90;9.90;;;;;;5012908;28;20415;-70
2023/10/12 01:58:19;;;;;;;5.17;4.17;;;16.90;9.90;;;;;;5042935;22;21096;-70
2023/10/12 02:00:51;;;;;;;6.00;3.60;;;17.00;10.00;;;;;;5050775;28;20432;-69
2023/10/12 02:03:20;;;;;;;4.63;4.03;;;16.90;9.90;;;;;;5050876;28;20475;-70
2023/10/12 02:06:22;;;;;;;9.60;4.93;;;16.90;9.90;;;;;;5051964;28;20435;-70
2023/10/12 02:08:40;;;;;;;5.40;3.93;;;16.90;9.40;;;;;;5050298;28;20444;-70
2023/10/12 02:11:11;;;;;;;16.73;5.37;;;17.00;9.00;;;;;;5051883;28;20440;-71
2023/10/12 02:13:37;;;;;;;5.10;3.80;;;17.10;8.90;;;;;;5052264;28;20421;-71
2023/10/12 02:16:07;;;;;;;4.70;4.20;;;17.10;8.80;;;;;;5051819;28;20417;-71
2023/10/12 02:18:36;;;;;;;5.23;4.30;;;17.00;8.70;;;;;;5050816;28;20544;-70
2023/10/12 02:21:11;;;;;;;8.63;4.53;;;17.00;8.90;;;;;;5050580;28;20421;-69
2023/10/12 02:23:39;;;;;;;8.57;3.83;;;17.00;8.90;;;;;;5049967;28;20510;-71
2023/10/12 02:26:29;;;;;;;4.80;3.50;;;17.00;9.00;;;;;;5050085;28;20428;-70
2023/10/12 02:29:01;;;;;;;7.57;4.20;;;16.90;9.60;;;;;;5050100;28;20448;-71
2023/10/12 02:31:30;;;;;;;11.20;5.23;;;16.80;9.30;;;;;;5050999;28;20424;-70
2023/10/12 02:33:56;;;;;;;5.93;3.63;;;16.80;9.20;;;;;;5052856;28;20471;-70
2023/10/12 02:36:26;;;;;;;8.20;4.23;;;16.80;9.20;;;;;;5052523;28;20441;-70
2023/10/12 02:38:52;;;;;;;4.80;4.30;;;16.70;9.20;;;;;;5050130;28;20445;-71
2023/10/12 02:41:18;;;;;;;6.07;4.10;;;16.70;9.20;;;;;;5051149;28;20805;-70
2023/10/12 02:43:50;;;;;;;5.67;4.30;;;16.70;9.00;;;;;;5054730;28;20464;-69
2023/10/12 02:46:22;;;;;;;6.37;3.80;;;16.70;9.00;;;;;;5053870;28;20175;-70
2023/10/12 02:48:50;;;;;;;5.80;4.07;;;16.80;8.60;;;;;;5053755;28;20440;-69
2023/10/12 02:51:22;;;;;;;7.47;4.23;;;16.90;8.50;;;;;;5052882;28;20432;-69
2023/10/12 02:53:48;;;;;;;4.80;4.30;;;16.80;8.70;;;;;;5057048;28;20555;-71
2023/10/12 02:56:18;;;;;;;5.47;3.80;;;16.70;8.90;;;;;;5054994;28;20417;-71
2023/10/12 02:58:45;;;;;;;9.40;4.23;;;16.70;9.10;;;;;;5054832;28;20449;-71
2023/10/12 03:01:16;;;;;;;7.00;4.10;;;16.70;9.10;;;;;;5054599;28;20433;-70
2023/10/12 03:03:48;;;;;;;5.60;4.30;;;16.60;9.00;;;;;;5054788;28;20810;-71
2023/10/12 03:06:23;;;;;;;6.77;4.10;;;16.60;9.20;;;;;;5041609;28;20441;-71
2023/10/12 03:11:25;;;;;;;4.30;3.23;;;16.60;9.20;;;;;;5034754;28;20429;-71
2023/10/12 03:14:00;;;;;;;5.43;3.90;;;16.60;9.00;;;;;;5034934;28;20497;-71
2023/10/12 03:16:33;;;;;;;5.13;4.03;;;16.60;9.00;;;;;;5033279;28;20457;-71
2023/10/12 03:19:17;;;;;;;4.70;3.60;;;16.60;9.10;;;;;;5034628;28;20442;-71
2023/10/12 03:21:46;;;;;;;4.20;3.60;;;16.60;9.00;;;;;;5034659;28;20433;-69
2023/10/12 03:24:15;;;;;;;8.00;4.20;;;16.60;9.70;;;;;;5046689;28;20468;-72
2023/10/12 03:26:47;;;;;;;3.90;3.50;;;16.50;9.70;;;;;;5054980;28;20519;-71
2023/10/12 03:29:18;;;;;;;4.10;3.13;;;16.40;10.70;;;;;;5053651;28;20449;-70
2023/10/12 03:34:30;;;;;;;5.47;4.60;;;16.30;11.80;;;;;;5034487;28;21127;-70
2023/10/12 03:36:58;;;;;;;4.37;3.20;;;16.20;12.20;;;;;;5035949;28;20418;-70
2023/10/12 03:39:27;;;;;;;5.87;3.77;;;16.20;12.80;;;;;;5033472;28;20457;-72
2023/10/12 03:42:42;;;;;;;6.83;4.23;;;16.20;12.30;;;;;;5032684;28;20971;-71
2023/10/12 03:45:24;;;;;;;9.80;4.30;;;16.20;11.70;;;;;;5034232;28;20552;-72
2023/10/12 03:48:22;;;;;;;6.03;4.67;;;16.30;11.50;;;;;;5033057;28;20457;-71
2023/10/12 03:50:59;;;;;;;4.90;4.23;;;16.30;11.30;;;;;;5033972;28;20417;-72
2023/10/12 03:53:37;;;;;;;8.40;3.80;;;16.40;11.10;;;;;;5033644;28;20417;-72
2023/10/12 03:56:07;;;;;;;9.53;4.60;;;16.60;10.50;;;;;;5042324;28;20437;-74
2023/10/12 03:58:38;;;;;;;7.77;4.33;;;16.70;10.50;;;;;;5054264;28;20511;-72
2023/10/12 04:01:12;;;;;;;6.53;4.60;;;16.70;10.50;;;;;;5052430;28;20440;-72
2023/10/12 04:03:40;;;;;;;5.47;4.17;;;16.80;9.90;;;;;;5052660;28;20469;-72
2023/10/12 04:06:15;;;;;;;9.67;4.13;;;17.00;10.30;;;;;;5053559;28;20425;-71
2023/10/12 04:08:51;;;;;;;5.20;4.30;;;17.00;10.10;;;;;;5052063;28;20464;-72
2023/10/12 04:14:19;;;;;;;5.50;4.17;;;17.10;10.10;;;;;;5054885;28;20436;-72
2023/10/12 04:16:57;;;;;;;5.40;3.60;;;17.10;10.10;;;;;;5054127;28;20788;-72
2023/10/12 04:19:32;;;;;;;7.03;4.80;;;17.10;10.10;;;;;;5051772;28;20456;-70
2023/10/12 04:22:24;;;;;;;4.13;3.33;;;17.10;10.20;;;;;;5053515;28;20938;-71
2023/10/12 04:24:54;;;;;;;8.10;3.80;;;17.10;10.10;;;;;;5038893;28;20468;-70
2023/10/12 04:27:39;;;;;;;6.93;5.30;;;17.10;10.60;;;;;;5035020;28;20422;-71
2023/10/12 04:30:20;;;;;;;8.80;3.50;;;17.00;11.20;;;;;;5035335;28;20817;-71
2023/10/12 04:35:53;;;;;;;4.60;3.70;;;16.70;12.30;;;;;;5034734;28;20460;-72
2023/10/12 04:43:37;;;;;;;6.30;4.00;;;16.40;14.40;;;;;;5052971;28;20978;-71
2023/10/12 04:48:41;;;;;;;7.77;4.10;;;16.20;15.50;;;;;;5053777;28;20440;-72
2023/10/12 04:51:07;;;;;;;7.60;4.40;;;16.10;16.00;;;;;;5054157;28;20470;-71
2023/10/12 04:53:53;;;;;;;5.40;3.40;;;16.00;16.00;;;;;;5051551;28;20421;-71
2023/10/12 04:56:19;;;;;;;5.73;4.93;;;16.00;16.70;;;;;;5053073;28;20965;-71
2023/10/12 04:58:57;;;;;;;7.30;4.83;;;15.90;17.00;;;;;;5052137;28;20460;-70
2023/10/12 05:01:25;;;;;;;5.60;3.97;;;15.80;17.50;;;;;;5051401;28;20486;-72
2023/10/12 05:04:09;;;;;;;4.93;3.47;;;15.80;17.50;;;;;;5034371;28;21030;-73
2023/10/12 05:07:20;;;;;;;10.03;4.20;;;15.80;17.70;;;;;;5031682;28;20458;-71
2023/10/12 05:09:29;;;;;;;8.80;4.47;;;15.80;18.00;;;;;;5032234;28;20491;-72
2023/10/12 05:11:55;;;;;;;8.57;4.70;;;15.60;19.00;;;;;;5033236;28;20410;-71
2023/10/12 05:14:20;;;;;;;6.37;5.00;;;15.50;19.80;;;;;;5032206;28;20183;-71
2023/10/12 05:16:47;;;;;;;5.70;4.07;;;15.50;19.80;;;;;;5032685;28;20186;-71
2023/10/12 05:19:13;;;;;;;7.23;4.33;;;15.50;20.10;;;;;;5048146;28;20219;-72
2023/10/12 05:21:39;;;;;;;8.50;4.20;;;15.60;19.90;;;;;;5032878;28;21060;-72
2023/10/12 05:24:05;;;;;;;6.03;5.20;;;15.60;20.20;;;;;;5032480;28;20286;-71
2023/10/12 05:26:30;;;;;;;6.97;4.83;;;15.60;20.40;;;;;;5032783;28;20505;-72
2023/10/12 05:31:48;;;;;;;8.70;5.40;;;15.70;20.20;;;;;;5052594;28;20217;-71
2023/10/12 05:34:32;;;;;;;7.30;4.90;;;15.60;20.80;;;;;;5052505;28;20428;-70
2023/10/12 05:37:00;;;;;;;7.70;4.20;;;15.60;21.10;;;;;;5051644;28;20478;-71
2023/10/12 05:39:27;;;;;;;10.70;5.43;;;15.60;21.40;;;;;;5032000;28;20480;-71
2023/10/12 05:41:59;;;;;;;41.77;7.83;;;15.60;21.40;;;;;;5034671;28;20946;-71
2023/10/12 05:44:26;;;;;;;11.00;5.80;;;15.50;22.20;;;;;;5035246;28;20472;-71
2023/10/12 05:46:59;;;;;;;8.27;4.20;;;15.50;22.20;;;;;;5051733;28;20410;-71
2023/10/12 05:49:25;;;;;;;7.00;3.83;;;15.40;23.20;;;;;;5050506;28;20432;-71
2023/10/12 05:51:51;;;;;;;10.40;5.70;;;15.30;23.70;;;;;;5052793;28;20412;-71
2023/10/12 05:54:20;;;;;;;14.90;4.87;;;15.40;23.20;;;;;;5050237;28;20789;-72
2023/10/12 05:56:48;;;;;;;6.97;4.87;;;15.40;23.10;;;;;;5044415;28;20425;-69
2023/10/12 05:59:14;;;;;;;12.20;5.47;;;15.30;23.90;;;;;;5047011;28;20858;-71
2023/10/12 06:01:45;;;;;;;9.83;6.10;;;15.30;24.30;;;;;;5032107;28;20418;-71
2023/10/12 06:04:14;;;;;;;12.83;5.70;;;15.30;24.80;;;;;;5032114;28;20210;-71
2023/10/12 06:06:41;;;;;;;11.63;5.57;;;15.40;24.40;;;;;;5051246;28;20428;-70
2023/10/12 06:09:12;;;;;;;6.37;5.07;;;15.50;23.90;;;;;;5050856;28;20455;-71
2023/10/12 06:11:41;;;;;;;12.43;6.30;;;15.60;23.30;;;;;;5051769;28;20409;-70
2023/10/12 06:14:08;;;;;;;14.37;4.83;;;15.60;24.20;;;;;;5046662;28;20429;-71
2023/10/12 06:16:40;;;;;;;50.50;12.47;;;15.70;23.40;;;;;;5032753;28;20429;-71
2023/10/12 06:19:18;;;;;;;7.97;5.23;;;15.80;22.80;;;;;;5035805;28;20430;-71
2023/10/12 06:21:44;;;;;;;17.20;6.50;;;16.00;22.20;;;;;;5036027;28;20417;-71
2023/10/12 06:24:13;;;;;;;17.50;5.00;;;16.20;21.50;;;;;;5040921;28;20456;-71
2023/10/12 06:26:44;;;;;;;45.43;13.33;;;16.40;20.60;;;;;;5055210;28;20459;-70
2023/10/12 06:29:09;;;;;;;17.73;7.10;;;16.50;19.40;;;;;;5053134;28;20467;-71
2023/10/12 06:31:35;;;;;;;19.13;8.80;;;16.70;18.70;;;;;;5054704;28;20413;-70
2023/10/12 06:34:04;;;;;;;23.40;5.70;;;16.90;18.80;;;;;;5049874;28;20190;-71
2023/10/12 06:36:39;;;;;;;11.50;5.70;;;17.00;17.50;;;;;;5035785;28;20467;-71
2023/10/12 06:44:22;;;;;;;12.00;6.40;;;17.50;16.00;;;;;;5041533;28;20472;-70
2023/10/12 06:46:48;;;;;;;9.77;6.70;;;17.60;15.10;;;;;;5055839;28;20932;-71
2023/10/12 06:49:18;;;;;;;10.03;5.50;;;17.80;15.70;;;;;;5053754;28;20448;-71
2023/10/12 06:51:53;;;;;;;10.30;4.80;;;17.80;15.10;;;;;;5055363;28;20409;-71
2023/10/12 06:54:31;;;;;;;10.50;4.70;;;18.00;15.00;;;;;;5048816;28;20772;-71
2023/10/12 06:57:12;;;;;;;11.97;5.50;;;18.10;14.10;;;;;;5035614;28;20441;-71
2023/10/12 06:59:38;;;;;;;4.50;4.00;;;18.10;14.40;;;;;;5033588;28;20840;-71
2023/10/12 07:02:09;;;;;;;5.97;3.83;;;18.10;14.40;;;;;;5034050;28;20428;-72
2023/10/12 07:04:39;;;;;;;8.97;4.70;;;18.20;14.20;;;;;;5042739;28;20203;-71
2023/10/12 07:07:07;;;;;;;15.03;5.90;;;18.30;14.20;;;;;;5054802;28;20436;-71
2023/10/12 07:09:40;;;;;;;10.53;5.40;;;18.50;14.00;;;;;;5055125;28;20436;-71
2023/10/12 07:12:18;;;;;;;8.03;4.97;;;18.60;13.40;;;;;;5054916;28;20918;-71
2023/10/12 07:14:46;;;;;;;9.13;4.90;;;18.90;11.10;;;;;;5051864;28;20439;-71
2023/10/12 07:17:15;;;;;;;40.50;12.60;;;19.30;10.60;;;;;;5055172;28;21013;-72
2023/10/12 07:19:53;;;;;;;6.03;5.07;;;19.80;9.80;;;;;;5054945;28;20461;-72
2023/10/12 07:22:20;;;;;;;6.33;4.80;;;20.20;8.20;;;;;;5054657;28;20504;-71
2023/10/12 07:24:46;;;;;;;10.23;4.90;;;20.70;7.50;;;;;;5043838;28;20468;-71
2023/10/12 07:27:17;;;;;;;6.10;4.40;;;21.00;5.90;;;;;;5032684;28;20422;-72
2023/10/12 07:29:47;;;;;;;9.00;5.33;;;21.40;5.10;;;;;;5038624;28;20456;-72
2023/10/12 07:32:38;;;;;;;7.47;4.93;;;21.60;4.00;;;;;;5033330;28;20414;-72
2023/10/12 07:35:07;;;;;;;6.93;5.47;;;21.80;3.10;;;;;;5033474;28;20536;-72
2023/10/12 07:37:33;;;;;;;4.43;4.00;;;22.20;3.30;;;;;;5034560;28;20417;-73
2023/10/12 07:40:14;;;;;;;7.10;5.00;;;22.40;2.50;;;;;;5033353;28;20438;-73
2023/10/12 07:42:40;;;;;;;5.63;4.60;;;22.50;1.80;;;;;;5034785;28;20286;-72
2023/10/12 07:45:06;;;;;;;7.80;5.37;;;22.70;1.70;;;;;;5036908;28;20548;-73
2023/10/12 07:47:32;;;;;;;6.20;5.60;;;22.90;1.00;;;;;;5054631;28;20273;-73
2023/10/12 07:50:06;;;;;;;6.20;4.87;;;22.90;1.00;;;;;;5053411;28;20489;-72
2023/10/12 07:52:39;;;;;;;10.93;4.67;;;23.00;1.00;;;;;;5054700;28;20433;-73
2023/10/12 07:55:17;;;;;;;6.20;5.60;;;23.20;1.00;;;;;;5053096;28;20422;-73
2023/10/12 07:57:46;;;;;;;8.17;5.10;;;23.60;1.00;;;;;;5054750;28;20421;-74
2023/10/12 08:05:33;;;;;;;12.83;5.80;;;24.20;1.00;;;;;;5034346;28;20552;-70
2023/10/12 08:10:56;;;;;;;6.10;5.17;;;24.20;1.00;;;;;;5014189;28;20410;-69
2023/10/12 08:32:03;;;;;;;6.87;4.93;;;23.80;1.00;;;;;;5013900;28;20191;-68
2023/10/12 08:39:39;;;;;;;6.10;5.10;;;24.20;1.00;;;;;;5013881;28;20513;-68
2023/10/12 08:44:55;;;;;;;8.93;4.70;;;24.40;1.00;;;;;;5013889;28;20842;-70
2023/10/12 08:50:05;;;;;;;6.60;5.20;;;24.40;1.00;;;;;;5013726;28;20991;-70
2023/10/12 08:52:34;;;;;;;11.00;6.20;;;24.00;1.00;;;;;;5013473;28;20394;-69
2023/10/12 08:55:19;;;;;;;9.60;6.17;;;23.90;1.00;;;;;;5013405;28;20427;-70
2023/10/12 08:57:55;;;;;;;13.43;5.87;;;23.80;1.00;;;;;;5013567;28;20523;-69
2023/10/12 09:03:04;;;;;;;7.00;4.90;;;23.90;1.00;;;;;;5013220;28;20429;-70
2023/10/12 09:05:31;;;;;;;7.00;5.03;;;23.80;1.00;;;;;;5013451;28;20415;-69
2023/10/12 09:11:02;;;;;;;7.67;5.70;;;24.20;1.00;;;;;;5013455;28;20469;-70
2023/10/12 09:13:35;;;;;;;8.37;5.50;;;23.70;1.00;;;;;;5013262;28;20983;-71
2023/10/12 09:16:27;;;;;;;8.47;6.27;;;23.80;1.00;;;;;;5011717;28;20431;-70
2023/10/12 09:18:59;;;;;;;7.40;5.47;;;23.90;1.00;;;;;;5012650;28;20455;-70
2023/10/12 09:21:57;;;;;;;9.00;5.60;;;23.50;1.00;;;;;;5013102;28;20870;-70
2023/10/12 09:24:28;;;;;;;11.37;5.30;;;23.60;1.00;;;;;;5012710;28;20450;-70
2023/10/12 09:26:59;;;;;;;5.10;4.60;;;23.70;1.00;;;;;;5012692;28;20422;-69
2023/10/12 09:29:27;;;;;;;7.97;5.60;;;23.80;1.00;;;;;;5012869;28;20430;-69
2023/10/12 09:32:15;;;;;;;6.57;5.10;;;23.60;1.00;;;;;;5012807;28;20914;-69
2023/10/12 09:34:46;;;;;;;9.33;6.50;;;23.80;1.00;;;;;;5012767;28;20447;-69
2023/10/12 09:37:18;;;;;;;7.40;5.53;;;24.20;1.00;;;;;;5012853;28;20461;-69
2023/10/12 09:39:45;;;;;;;8.87;6.50;;;24.40;1.00;;;;;;5011625;28;20524;-69
2023/10/12 09:42:22;;;;;;;11.53;7.07;;;24.70;1.00;;;;;;5012041;28;20570;-70
2023/10/12 09:44:52;;;;;;;6.80;6.10;;;24.80;1.00;;;;;;5012644;28;20464;-70
2023/10/12 09:47:25;;;;;;;9.17;5.60;;;24.70;1.00;;;;;;5014454;28;20501;-70
2023/10/12 09:50:10;;;;;;;5.87;5.20;;;24.90;1.00;;;;;;5014163;28;20423;-71
2023/10/12 09:52:46;;;;;;;7.50;5.50;;;24.90;1.00;;;;;;5014341;28;20876;-69
2023/10/12 09:55:23;;;;;;;8.70;6.00;;;25.00;1.00;;;;;;5012553;28;20481;-71
2023/10/12 09:57:50;;;;;;;7.83;6.07;;;25.30;1.00;;;;;;5013075;28;20852;-69
2023/10/12 10:00:53;;;;;;;7.30;5.83;;;25.50;1.00;;;;;;5012796;28;20533;-70
2023/10/12 10:03:15;;;;;;;6.33;5.73;;;25.60;1.00;;;;;;5012638;28;20478;-69
2023/10/12 10:05:52;;;;;;;7.93;6.03;;;25.50;1.00;;;;;;5012635;28;20498;-70
2023/10/12 10:08:19;;;;;;;21.07;6.73;;;25.40;1.00;;;;;;5012692;28;20421;-71
2023/10/12 10:10:46;;;;;;;10.70;6.17;;;25.60;1.00;;;;;;5011308;28;20787;-71
2023/10/12 10:13:46;;;;;;;10.27;6.60;;;25.60;1.00;;;;;;5012400;28;20415;-71
2023/10/12 10:16:17;;;;;;;7.30;5.97;;;25.60;1.00;;;;;;5012753;28;20905;-69
2023/10/12 10:18:48;;;;;;;7.53;5.40;;;25.50;1.00;;;;;;5012589;28;20422;-72
2023/10/12 10:21:19;;;;;;;6.70;6.07;;;25.80;1.00;;;;;;5013134;28;20422;-70
2023/10/12 10:23:52;;;;;;;7.23;5.53;;;25.50;1.00;;;;;;5017707;28;20458;-69
2023/10/12 10:26:37;;;;;;;6.40;5.80;;;25.50;1.00;;;;;;5014985;28;20414;-71
2023/10/12 10:29:17;;;;;;;10.33;6.20;;;25.70;1.00;;;;;;5014318;28;20435;-70
2023/10/12 10:31:44;;;;;;;6.90;6.00;;;26.00;1.00;;;;;;5012134;28;20426;-70
2023/10/12 10:34:14;;;;;;;6.73;4.70;;;25.60;1.00;;;;;;5012677;28;20921;-70
2023/10/12 10:36:44;;;;;;;7.87;5.33;;;25.30;1.00;;;;;;5012610;28;20524;-70
2023/10/12 10:44:52;;;;;;;10.53;6.00;;;25.00;1.00;;;;;;5012302;28;20458;-72
2023/10/12 10:47:00;;;;;;;7.00;6.37;;;25.00;1.00;;;;;;5009019;28;20800;-72
2023/10/12 10:49:32;;;;;;;18.30;6.60;;;24.90;1.00;;;;;;5012174;28;20445;-69
2023/10/12 10:54:39;;;;;;;6.07;5.47;;;25.30;1.00;;;;;;5012385;28;20418;-70
2023/10/12 10:57:16;;;;;;;8.50;6.77;;;25.40;1.00;;;;;;5012039;28;20411;-70
2023/10/12 10:59:44;;;;;;;11.83;5.37;;;25.40;1.00;;;;;;5012004;28;20446;-70
2023/10/12 11:02:13;;;;;;;6.53;5.90;;;25.60;1.00;;;;;;5012248;28;20417;-69
2023/10/12 11:04:41;;;;;;;7.20;5.50;;;25.70;1.00;;;;;;5014896;28;20864;-70
2023/10/12 11:07:15;;;;;;;10.03;6.07;;;26.00;1.00;;;;;;5015311;28;20449;-71
2023/10/12 11:12:17;;;;;;;8.70;5.70;;;26.30;1.00;;;;;;5015161;28;20426;-70
2023/10/12 11:14:52;;;;;;;10.30;6.37;;;26.00;1.00;;;;;;5015688;28;20433;-69
2023/10/12 11:17:21;;;;;;;8.80;5.80;;;26.10;1.00;;;;;;5014949;28;20426;-70
2023/10/12 11:19:49;;;;;;;8.30;5.87;;;26.30;1.00;;;;;;5015592;28;20953;-70
2023/10/12 11:22:16;;;;;;;7.07;5.77;;;26.50;1.00;;;;;;5015141;28;20434;-70
2023/10/12 11:24:45;;;;;;;7.67;5.17;;;26.20;1.00;;;;;;5015056;28;20469;-69
2023/10/12 11:27:11;;;;;;;16.20;7.97;;;26.30;1.00;;;;;;5014940;28;20411;-70
2023/10/12 11:29:51;;;;;;;6.90;5.43;;;26.70;1.00;;;;;;5013255;28;20443;-72
2023/10/12 11:32:17;;;;;;;6.27;5.33;;;26.60;1.00;;;;;;5013743;28;20458;-70
2023/10/12 11:34:52;;;;;;;6.23;4.80;;;26.40;1.00;;;;;;5014896;28;20453;-70
2023/10/12 11:37:18;;;;;;;6.57;4.80;;;26.40;1.00;;;;;;5014682;28;20175;-71
2023/10/12 11:39:46;;;;;;;7.60;5.97;;;26.60;1.00;;;;;;5013863;28;20797;-69
2023/10/12 11:42:13;;;;;;;5.90;5.30;;;26.30;1.00;;;;;;5014894;28;20660;-70
2023/10/12 11:44:42;;;;;;;11.30;6.67;;;25.90;1.00;;;;;;5014810;28;20465;-72
2023/10/12 11:47:29;;;;;;;6.10;5.00;;;25.90;1.00;;;;;;5014834;28;20430;-70
2023/10/12 11:49:57;;;;;;;6.80;5.23;;;25.80;1.00;;;;;;5014498;28;20447;-72
2023/10/12 11:52:32;;;;;;;7.67;5.37;;;25.70;1.00;;;;;;5014613;28;20450;-72
2023/10/12 11:55:06;;;;;;;10.37;6.83;;;25.30;1.00;;;;;;5014533;28;20784;-70
2023/10/12 11:57:37;;;;;;;5.83;4.73;;;25.30;1.00;;;;;;5014572;28;20414;-70
2023/10/12 12:00:07;;;;;;;5.77;4.80;;;25.40;1.00;;;;;;5014129;28;20518;-71
2023/10/12 12:02:32;;;;;;;6.13;5.40;;;25.60;1.00;;;;;;5014487;28;20926;-70
2023/10/12 12:04:58;;;;;;;8.77;5.53;;;25.80;1.00;;;;;;5014448;28;20494;-74
2023/10/12 12:07:23;;;;;;;4.93;4.47;;;26.10;1.00;;;;;;5014486;28;20176;-70
2023/10/12 12:09:52;;;;;;;6.37;5.07;;;26.10;1.00;;;;;;5014042;28;20203;-70
2023/10/12 12:12:18;;;;;;;12.23;5.73;;;26.00;1.00;;;;;;5014251;28;20283;-69
2023/10/12 12:14:46;;;;;;;5.40;4.90;;;26.10;1.00;;;;;;5012095;28;20450;-70
2023/10/12 12:17:15;;;;;;;9.30;5.50;;;26.20;1.00;;;;;;5013646;28;20563;-70
2023/10/12 12:19:41;;;;;;;6.50;5.90;;;26.20;1.00;;;;;;5014011;28;20518;-70
2023/10/12 12:22:10;;;;;;;6.10;5.33;;;26.30;1.00;;;;;;5013895;28;20427;-70
2023/10/12 12:24:37;;;;;;;9.00;5.43;;;26.60;1.00;;;;;;5013783;28;20469;-70
2023/10/12 12:27:03;;;;;;;6.13;5.23;;;26.70;1.00;;;;;;5012075;28;20477;-70
2023/10/12 12:29:29;;;;;;;6.17;5.67;;;26.60;1.00;;;;;;5013370;28;20469;-72
2023/10/12 12:31:57;;;;;;;6.37;5.47;;;26.60;1.00;;;;;;5013561;28;20472;-70
2023/10/12 12:37:07;;;;;;;6.47;5.87;;;26.70;1.00;;;;;;4993811;28;20796;-71
2023/10/12 12:39:34;;;;;;;5.87;5.30;;;26.50;1.00;;;;;;5009000;28;20447;-70
2023/10/12 12:42:09;;;;;;;12.93;7.30;;;26.50;1.00;;;;;;4993847;28;20426;-70
2023/10/12 12:44:35;;;;;;;9.80;5.77;;;26.50;1.00;;;;;;5008817;28;20509;-70
2023/10/12 12:47:01;;;;;;;7.20;6.30;;;26.20;1.00;;;;;;4993965;28;20427;-71
2023/10/12 12:49:30;;;;;;;8.37;4.90;;;26.30;1.00;;;;;;5008674;28;20440;-70
2023/10/12 12:52:00;;;;;;;7.57;5.27;;;26.20;1.00;;;;;;4993835;28;20419;-70
2023/10/12 12:54:26;;;;;;;6.10;5.60;;;26.10;1.00;;;;;;4993479;28;20420;-73
2023/10/12 12:56:54;;;;;;;6.37;5.47;;;26.00;1.00;;;;;;5008529;28;20428;-70
2023/10/12 12:59:24;;;;;;;5.40;4.87;;;26.10;1.00;;;;;;4993318;28;20216;-71
2023/10/12 13:01:50;;;;;;;8.27;5.33;;;26.10;1.00;;;;;;4993496;28;20439;-70
2023/10/12 13:04:17;;;;;;;15.37;6.83;;;26.10;1.00;;;;;;4992217;28;20560;-69
2023/10/12 13:06:43;;;;;;;30.40;12.37;;;26.20;1.00;;;;;;4993212;28;20512;-70
2023/10/12 13:09:28;;;;;;;15.07;7.00;;;26.20;1.00;;;;;;4992040;28;21144;-70
2023/10/12 13:11:56;;;;;;;6.13;4.30;;;26.20;1.00;;;;;;4993326;28;20396;-72
2023/10/12 13:14:22;;;;;;;5.80;4.93;;;25.70;1.00;;;;;;4993209;28;20827;-72
2023/10/12 13:16:49;;;;;;;8.83;5.37;;;25.50;1.00;;;;;;4992946;28;20423;-71
2023/10/12 13:19:17;;;;;;;7.57;5.70;;;25.40;1.00;;;;;;4993058;28;20271;-70
2023/10/12 13:21:44;;;;;;;8.13;5.20;;;25.40;1.00;;;;;;4993070;28;20443;-69
2023/10/12 13:24:12;;;;;;;6.70;5.33;;;25.40;1.00;;;;;;4992962;28;20466;-69
2023/10/12 13:26:43;;;;;;;9.23;5.77;;;25.30;1.00;;;;;;4991942;28;20487;-70
2023/10/12 13:29:12;;;;;;;11.37;5.70;;;25.20;1.00;;;;;;4991676;28;20444;-70
2023/10/12 13:31:37;;;;;;;6.30;5.70;;;25.10;1.00;;;;;;4993016;28;20415;-71
2023/10/12 13:34:05;;;;;;;7.17;5.10;;;25.00;1.00;;;;;;4992804;28;20478;-69
2023/10/12 13:36:34;;;;;;;11.63;5.07;;;24.80;1.00;;;;;;4992758;28;20176;-71
2023/10/12 13:39:00;;;;;;;9.10;5.03;;;24.70;1.00;;;;;;4992848;28;20435;-71
2023/10/12 13:41:26;;;;;;;8.23;4.83;;;24.70;1.00;;;;;;4992816;28;20467;-71
2023/10/12 13:43:52;;;;;;;9.50;5.77;;;24.70;1.00;;;;;;4991436;28;20216;-70
2023/10/12 13:46:20;;;;;;;24.33;9.03;;;24.60;1.00;;;;;;4992735;28;20497;-70
2023/10/12 13:48:49;;;;;;;17.17;5.23;;;24.60;1.00;;;;;;4992728;28;21016;-70
2023/10/12 13:51:21;;;;;;;9.70;6.50;;;24.40;1.00;;;;;;4992741;28;20412;-71
2023/10/12 13:53:49;;;;;;;6.70;4.83;;;24.50;1.00;;;;;;4991461;28;20428;-70
2023/10/12 13:56:15;;;;;;;5.60;5.10;;;24.60;1.00;;;;;;4992388;28;21003;-71
2023/10/12 13:58:44;;;;;;;6.37;5.40;;;24.70;1.00;;;;;;5061363;23;20458;-71
2023/10/12 14:01:18;;;;;;;6.20;5.60;;;24.60;1.00;;;;;;5031992;28;20554;-71
2023/10/12 14:03:45;;;;;;;6.20;5.30;;;24.60;1.00;;;;;;5031949;28;20472;-71
2023/10/12 14:06:11;;;;;;;10.73;6.17;;;24.80;1.00;;;;;;5030369;28;20422;-71
2023/10/12 14:08:40;;;;;;;11.70;7.47;;;24.90;1.00;;;;;;5031941;28;20494;-71
2023/10/12 14:11:06;;;;;;;17.73;7.83;;;25.10;1.00;;;;;;5031488;28;20411;-71
2023/10/12 14:13:35;;;;;;;9.60;6.77;;;24.90;1.00;;;;;;5030666;28;20517;-71
2023/10/12 14:16:01;;;;;;;9.83;5.90;;;24.80;1.00;;;;;;5031519;28;20414;-71
2023/10/12 14:18:31;;;;;;;6.77;5.40;;;24.90;1.00;;;;;;5030717;28;20870;-71
2023/10/12 14:20:56;;;;;;;8.43;4.67;;;25.00;1.00;;;;;;5031724;28;20175;-71
2023/10/12 14:23:26;;;;;;;8.03;5.17;;;24.80;1.00;;;;;;5031779;28;20421;-71
2023/10/12 14:25:54;;;;;;;12.47;5.20;;;24.70;1.00;;;;;;5031523;28;20414;-71
2023/10/12 14:28:20;;;;;;;7.43;5.80;;;24.90;1.00;;;;;;5030633;28;20781;-71
2023/10/12 14:30:47;;;;;;;6.87;4.30;;;24.80;1.00;;;;;;5030739;28;20932;-71
2023/10/12 14:33:19;;;;;;;6.57;5.33;;;24.70;1.00;;;;;;5030893;28;20425;-71
2023/10/12 14:35:46;;;;;;;11.50;5.53;;;24.70;1.00;;;;;;5031847;28;20410;-71
2023/10/12 14:38:16;;;;;;;6.73;5.33;;;24.60;1.00;;;;;;5034969;28;20424;-69
2023/10/12 14:40:43;;;;;;;6.10;4.60;;;24.70;1.00;;;;;;5035291;28;20436;-70
2023/10/12 14:43:11;;;;;;;7.30;5.90;;;24.90;1.00;;;;;;5035445;28;20418;-71
2023/10/12 14:45:43;;;;;;;8.47;5.97;;;24.80;1.00;;;;;;5035238;28;20426;-71
2023/10/12 14:48:09;;;;;;;7.10;5.03;;;24.70;1.00;;;;;;5035254;28;20426;-71
2023/10/12 14:50:43;;;;;;;5.30;4.67;;;24.70;1.00;;;;;;5035088;28;20817;-71
2023/10/12 14:53:30;;;;;;;6.20;4.73;;;24.70;1.00;;;;;;5035087;28;20457;-71
2023/10/12 14:55:55;;;;;;;7.27;5.20;;;24.60;1.00;;;;;;5034205;28;20467;-70